Ya'An, China
Current Conditions -  °F | °C
As of 10:00 PM on Sunday 21 Dec 2014 (Local Time) from ZUUU Reporting Station
Clear Clear  
Wind Chill: 37°   Ceiling: Unl
Heat Index: 37°   Visibility: 6mi
Dew Point: 27°   Wind: 0mph
Humidity: 65%   Direction: NA
Pressure: 30.39"   Gusts: NA
Location:  29.98°N, 103°E
Report Text: ZUUU 211400Z 00000MPS CAVOK 03/M03 Q1029 NOSIG
Loading
Personal Weather Stations






























Interactive Weather Map New forecast layout! Learn more

10-Day Weather Forecast

Advertisements
Track Severe Weather on mobile